sensor_id;sensor_type;location;lat;lon;timestamp;P1;durP1;ratioP1;P2;durP2;ratioP2
9138;SDS011;4604;48.616;9.548;2023-10-19T00:02:44;17.87;;;12.20;;
9138;SDS011;4604;48.616;9.548;2023-10-19T00:05:11;16.77;;;12.23;;
9138;SDS011;4604;48.616;9.548;2023-10-19T00:07:39;22.17;;;14.17;;
9138;SDS011;4604;48.616;9.548;2023-10-19T00:10:06;16.90;;;11.87;;
9138;SDS011;4604;48.616;9.548;2023-10-19T00:12:32;19.03;;;12.33;;
9138;SDS011;4604;48.616;9.548;2023-10-19T00:15:00;15.13;;;11.30;;
9138;SDS011;4604;48.616;9.548;2023-10-19T00:17:29;18.10;;;11.70;;
9138;SDS011;4604;48.616;9.548;2023-10-19T00:19:57;14.73;;;10.73;;
9138;SDS011;4604;48.616;9.548;2023-10-19T00:22:31;17.47;;;11.93;;
9138;SDS011;4604;48.616;9.548;2023-10-19T00:25:01;17.03;;;10.93;;
9138;SDS011;4604;48.616;9.548;2023-10-19T00:27:28;17.10;;;11.57;;
9138;SDS011;4604;48.616;9.548;2023-10-19T00:29:56;17.63;;;12.50;;
9138;SDS011;4604;48.616;9.548;2023-10-19T00:32:32;15.93;;;11.60;;
9138;SDS011;4604;48.616;9.548;2023-10-19T00:35:03;15.27;;;11.00;;
9138;SDS011;4604;48.616;9.548;2023-10-19T00:37:46;15.40;;;10.33;;
9138;SDS011;4604;48.616;9.548;2023-10-19T00:40:13;10.03;;;7.67;;
9138;SDS011;4604;48.616;9.548;2023-10-19T00:42:44;6.27;;;4.27;;
9138;SDS011;4604;48.616;9.548;2023-10-19T00:45:18;4.30;;;3.47;;
9138;SDS011;4604;48.616;9.548;2023-10-19T00:47:52;4.03;;;3.07;;
9138;SDS011;4604;48.616;9.548;2023-10-19T00:50:19;3.43;;;2.73;;
9138;SDS011;4604;48.616;9.548;2023-10-19T00:52:47;6.07;;;2.60;;
9138;SDS011;4604;48.616;9.548;2023-10-19T00:55:15;3.27;;;2.40;;
9138;SDS011;4604;48.616;9.548;2023-10-19T00:57:44;3.80;;;2.20;;
9138;SDS011;4604;48.616;9.548;2023-10-19T01:00:14;3.30;;;2.27;;
9138;SDS011;4604;48.616;9.548;2023-10-19T01:02:47;5.50;;;2.10;;
9138;SDS011;4604;48.616;9.548;2023-10-19T01:05:17;3.27;;;2.10;;
9138;SDS011;4604;48.616;9.548;2023-10-19T01:07:47;2.30;;;1.97;;
9138;SDS011;4604;48.616;9.548;2023-10-19T01:10:21;2.40;;;1.93;;
9138;SDS011;4604;48.616;9.548;2023-10-19T01:12:48;3.37;;;2.00;;
9138;SDS011;4604;48.616;9.548;2023-10-19T01:15:16;2.70;;;2.20;;
9138;SDS011;4604;48.616;9.548;2023-10-19T01:17:49;2.57;;;1.70;;
9138;SDS011;4604;48.616;9.548;2023-10-19T01:20:20;2.30;;;2.10;;
9138;SDS011;4604;48.616;9.548;2023-10-19T01:22:53;3.47;;;2.20;;
9138;SDS011;4604;48.616;9.548;2023-10-19T01:25:31;4.77;;;2.40;;
9138;SDS011;4604;48.616;9.548;2023-10-19T01:28:01;2.93;;;1.90;;
9138;SDS011;4604;48.616;9.548;2023-10-19T01:30:34;3.85;;;2.95;;
9138;SDS011;4604;48.616;9.548;2023-10-19T01:33:01;5.17;;;2.53;;
9138;SDS011;4604;48.616;9.548;2023-10-19T01:35:29;3.70;;;2.40;;
9138;SDS011;4604;48.616;9.548;2023-10-19T01:38:17;2.90;;;2.13;;
9138;SDS011;4604;48.616;9.548;2023-10-19T01:40:43;2.88;;;2.50;;
9138;SDS011;4604;48.616;9.548;2023-10-19T01:43:13;3.13;;;2.13;;
9138;SDS011;4604;48.616;9.548;2023-10-19T01:45:45;3.57;;;2.33;;
9138;SDS011;4604;48.616;9.548;2023-10-19T01:48:12;3.17;;;2.40;;
9138;SDS011;4604;48.616;9.548;2023-10-19T01:50:40;4.03;;;2.30;;
9138;SDS011;4604;48.616;9.548;2023-10-19T01:53:06;2.87;;;2.43;;
9138;SDS011;4604;48.616;9.548;2023-10-19T01:55:41;2.95;;;2.45;;
9138;SDS011;4604;48.616;9.548;2023-10-19T01:58:07;3.20;;;2.47;;
9138;SDS011;4604;48.616;9.548;2023-10-19T02:00:35;3.53;;;2.23;;
9138;SDS011;4604;48.616;9.548;2023-10-19T02:03:05;4.47;;;2.17;;
9138;SDS011;4604;48.616;9.548;2023-10-19T02:05:33;4.68;;;2.50;;
9138;SDS011;4604;48.616;9.548;2023-10-19T02:08:05;2.77;;;2.30;;
9138;SDS011;4604;48.616;9.548;2023-10-19T02:10:32;6.37;;;2.30;;
9138;SDS011;4604;48.616;9.548;2023-10-19T02:13:00;5.00;;;2.58;;
9138;SDS011;4604;48.616;9.548;2023-10-19T02:15:31;3.28;;;2.53;;
9138;SDS011;4604;48.616;9.548;2023-10-19T02:17:59;6.13;;;3.00;;
9138;SDS011;4604;48.616;9.548;2023-10-19T02:20:26;5.13;;;2.30;;
9138;SDS011;4604;48.616;9.548;2023-10-19T02:22:54;3.42;;;2.45;;
9138;SDS011;4604;48.616;9.548;2023-10-19T02:25:22;3.95;;;2.30;;
9138;SDS011;4604;48.616;9.548;2023-10-19T02:27:50;3.08;;;2.35;;
9138;SDS011;4604;48.616;9.548;2023-10-19T02:30:18;2.65;;;2.22;;
9138;SDS011;4604;48.616;9.548;2023-10-19T02:32:44;4.65;;;2.30;;
9138;SDS011;4604;48.616;9.548;2023-10-19T02:35:12;4.25;;;2.90;;
9138;SDS011;4604;48.616;9.548;2023-10-19T02:37:39;3.80;;;2.83;;
9138;SDS011;4604;48.616;9.548;2023-10-19T02:40:06;3.03;;;2.38;;
9138;SDS011;4604;48.616;9.548;2023-10-19T02:42:37;5.20;;;2.83;;
9138;SDS011;4604;48.616;9.548;2023-10-19T02:45:04;3.72;;;2.63;;
9138;SDS011;4604;48.616;9.548;2023-10-19T02:47:33;6.15;;;2.55;;
9138;SDS011;4604;48.616;9.548;2023-10-19T02:50:00;6.32;;;2.65;;
9138;SDS011;4604;48.616;9.548;2023-10-19T02:52:26;4.60;;;2.17;;
9138;SDS011;4604;48.616;9.548;2023-10-19T02:54:53;4.88;;;2.47;;
9138;SDS011;4604;48.616;9.548;2023-10-19T02:57:22;4.18;;;2.20;;
9138;SDS011;4604;48.616;9.548;2023-10-19T02:59:49;5.25;;;2.17;;
9138;SDS011;4604;48.616;9.548;2023-10-19T03:02:15;5.55;;;2.30;;
9138;SDS011;4604;48.616;9.548;2023-10-19T03:04:44;3.72;;;2.50;;
9138;SDS011;4604;48.616;9.548;2023-10-19T03:07:10;5.03;;;2.40;;
9138;SDS011;4604;48.616;9.548;2023-10-19T03:09:37;2.45;;;2.25;;
9138;SDS011;4604;48.616;9.548;2023-10-19T03:12:04;4.03;;;2.60;;
9138;SDS011;4604;48.616;9.548;2023-10-19T03:14:35;5.38;;;2.58;;
9138;SDS011;4604;48.616;9.548;2023-10-19T03:17:02;3.78;;;2.40;;
9138;SDS011;4604;48.616;9.548;2023-10-19T03:19:30;2.88;;;2.30;;
9138;SDS011;4604;48.616;9.548;2023-10-19T03:21:58;3.83;;;2.33;;
9138;SDS011;4604;48.616;9.548;2023-10-19T03:24:25;2.38;;;2.15;;
9138;SDS011;4604;48.616;9.548;2023-10-19T03:27:08;3.38;;;2.40;;
9138;SDS011;4604;48.616;9.548;2023-10-19T03:29:41;3.35;;;2.90;;
9138;SDS011;4604;48.616;9.548;2023-10-19T03:32:11;2.28;;;1.85;;
9138;SDS011;4604;48.616;9.548;2023-10-19T03:34:38;2.75;;;2.42;;
9138;SDS011;4604;48.616;9.548;2023-10-19T03:37:09;4.28;;;2.47;;
9138;SDS011;4604;48.616;9.548;2023-10-19T03:39:37;4.00;;;2.50;;
9138;SDS011;4604;48.616;9.548;2023-10-19T03:42:05;2.88;;;2.40;;
9138;SDS011;4604;48.616;9.548;2023-10-19T03:44:32;5.20;;;3.72;;
9138;SDS011;4604;48.616;9.548;2023-10-19T03:47:09;8.32;;;4.40;;
9138;SDS011;4604;48.616;9.548;2023-10-19T03:49:39;6.90;;;4.28;;
9138;SDS011;4604;48.616;9.548;2023-10-19T03:52:07;8.45;;;5.20;;
9138;SDS011;4604;48.616;9.548;2023-10-19T03:54:47;9.57;;;6.03;;
9138;SDS011;4604;48.616;9.548;2023-10-19T03:57:15;8.65;;;5.78;;
9138;SDS011;4604;48.616;9.548;2023-10-19T03:59:46;7.47;;;5.57;;
9138;SDS011;4604;48.616;9.548;2023-10-19T04:02:15;9.60;;;6.88;;
9138;SDS011;4604;48.616;9.548;2023-10-19T04:04:45;8.33;;;6.23;;
9138;SDS011;4604;48.616;9.548;2023-10-19T04:07:13;11.07;;;7.03;;
9138;SDS011;4604;48.616;9.548;2023-10-19T04:09:47;11.27;;;6.63;;
9138;SDS011;4604;48.616;9.548;2023-10-19T04:12:25;8.43;;;6.17;;
9138;SDS011;4604;48.616;9.548;2023-10-19T04:14:53;8.93;;;6.00;;
9138;SDS011;4604;48.616;9.548;2023-10-19T04:17:20;11.50;;;6.23;;
9138;SDS011;4604;48.616;9.548;2023-10-19T04:19:49;8.57;;;5.83;;
9138;SDS011;4604;48.616;9.548;2023-10-19T04:22:16;6.83;;;5.50;;
9138;SDS011;4604;48.616;9.548;2023-10-19T04:24:49;6.67;;;5.07;;
9138;SDS011;4604;48.616;9.548;2023-10-19T04:27:16;6.13;;;4.80;;
9138;SDS011;4604;48.616;9.548;2023-10-19T04:29:46;6.90;;;4.60;;
9138;SDS011;4604;48.616;9.548;2023-10-19T04:32:14;7.80;;;4.70;;
9138;SDS011;4604;48.616;9.548;2023-10-19T04:34:49;6.97;;;4.60;;
9138;SDS011;4604;48.616;9.548;2023-10-19T04:37:16;6.77;;;4.60;;
9138;SDS011;4604;48.616;9.548;2023-10-19T04:39:43;5.33;;;3.70;;
9138;SDS011;4604;48.616;9.548;2023-10-19T04:42:11;6.60;;;4.20;;
9138;SDS011;4604;48.616;9.548;2023-10-19T04:44:39;5.70;;;4.00;;
9138;SDS011;4604;48.616;9.548;2023-10-19T04:47:06;6.43;;;3.90;;
9138;SDS011;4604;48.616;9.548;2023-10-19T04:49:32;4.77;;;3.97;;
9138;SDS011;4604;48.616;9.548;2023-10-19T04:51:59;5.20;;;3.50;;
9138;SDS011;4604;48.616;9.548;2023-10-19T04:54:25;5.97;;;4.07;;
9138;SDS011;4604;48.616;9.548;2023-10-19T04:56:52;3.73;;;2.90;;
9138;SDS011;4604;48.616;9.548;2023-10-19T04:59:22;8.27;;;3.57;;
9138;SDS011;4604;48.616;9.548;2023-10-19T05:01:48;4.23;;;3.23;;
9138;SDS011;4604;48.616;9.548;2023-10-19T05:04:17;4.70;;;3.47;;
9138;SDS011;4604;48.616;9.548;2023-10-19T05:06:43;6.00;;;4.13;;
9138;SDS011;4604;48.616;9.548;2023-10-19T05:09:10;5.33;;;3.40;;
9138;SDS011;4604;48.616;9.548;2023-10-19T05:11:37;4.30;;;2.83;;
9138;SDS011;4604;48.616;9.548;2023-10-19T05:14:04;4.63;;;2.47;;
9138;SDS011;4604;48.616;9.548;2023-10-19T05:16:32;3.03;;;2.40;;
9138;SDS011;4604;48.616;9.548;2023-10-19T05:18:59;2.67;;;2.43;;
9138;SDS011;4604;48.616;9.548;2023-10-19T05:21:26;3.00;;;2.33;;
9138;SDS011;4604;48.616;9.548;2023-10-19T05:23:55;13.93;;;7.93;;
9138;SDS011;4604;48.616;9.548;2023-10-19T05:26:21;17.37;;;8.10;;
9138;SDS011;4604;48.616;9.548;2023-10-19T05:28:48;12.93;;;8.37;;
9138;SDS011;4604;48.616;9.548;2023-10-19T05:31:15;11.27;;;7.37;;
9138;SDS011;4604;48.616;9.548;2023-10-19T05:33:43;12.60;;;7.93;;
9138;SDS011;4604;48.616;9.548;2023-10-19T05:36:10;16.77;;;8.43;;
9138;SDS011;4604;48.616;9.548;2023-10-19T05:38:36;13.30;;;8.00;;
9138;SDS011;4604;48.616;9.548;2023-10-19T05:41:03;15.97;;;9.33;;
9138;SDS011;4604;48.616;9.548;2023-10-19T05:43:30;13.87;;;8.00;;
9138;SDS011;4604;48.616;9.548;2023-10-19T05:45:58;13.40;;;8.00;;
9138;SDS011;4604;48.616;9.548;2023-10-19T05:48:25;10.10;;;7.20;;
9138;SDS011;4604;48.616;9.548;2023-10-19T05:50:53;13.00;;;8.50;;
9138;SDS011;4604;48.616;9.548;2023-10-19T05:53:20;14.60;;;8.93;;
9138;SDS011;4604;48.616;9.548;2023-10-19T05:55:47;19.47;;;10.03;;
9138;SDS011;4604;48.616;9.548;2023-10-19T05:58:14;11.97;;;7.87;;
9138;SDS011;4604;48.616;9.548;2023-10-19T06:00:41;11.33;;;7.27;;
9138;SDS011;4604;48.616;9.548;2023-10-19T06:03:07;12.00;;;6.50;;
9138;SDS011;4604;48.616;9.548;2023-10-19T06:05:34;10.37;;;5.90;;
9138;SDS011;4604;48.616;9.548;2023-10-19T06:08:03;9.13;;;4.30;;
9138;SDS011;4604;48.616;9.548;2023-10-19T06:10:30;5.37;;;3.40;;
9138;SDS011;4604;48.616;9.548;2023-10-19T06:12:57;7.57;;;3.40;;
9138;SDS011;4604;48.616;9.548;2023-10-19T06:15:24;4.53;;;3.20;;
9138;SDS011;4604;48.616;9.548;2023-10-19T06:17:50;4.17;;;3.30;;
9138;SDS011;4604;48.616;9.548;2023-10-19T06:20:17;4.47;;;2.73;;
9138;SDS011;4604;48.616;9.548;2023-10-19T06:22:51;7.93;;;3.73;;
9138;SDS011;4604;48.616;9.548;2023-10-19T06:25:20;5.77;;;4.17;;
9138;SDS011;4604;48.616;9.548;2023-10-19T06:27:48;8.23;;;4.17;;
9138;SDS011;4604;48.616;9.548;2023-10-19T06:30:16;6.00;;;4.00;;
9138;SDS011;4604;48.616;9.548;2023-10-19T06:32:47;8.80;;;4.33;;
9138;SDS011;4604;48.616;9.548;2023-10-19T06:35:18;5.63;;;4.03;;
9138;SDS011;4604;48.616;9.548;2023-10-19T06:37:45;8.00;;;4.00;;
9138;SDS011;4604;48.616;9.548;2023-10-19T06:40:12;5.63;;;2.77;;
9138;SDS011;4604;48.616;9.548;2023-10-19T06:42:43;4.63;;;2.67;;
9138;SDS011;4604;48.616;9.548;2023-10-19T06:45:10;3.20;;;2.30;;
9138;SDS011;4604;48.616;9.548;2023-10-19T06:47:39;13.57;;;3.73;;
9138;SDS011;4604;48.616;9.548;2023-10-19T06:50:06;115.13;;;16.80;;
9138;SDS011;4604;48.616;9.548;2023-10-19T06:52:35;67.20;;;12.30;;
9138;SDS011;4604;48.616;9.548;2023-10-19T06:55:02;26.27;;;6.73;;
9138;SDS011;4604;48.616;9.548;2023-10-19T06:57:30;19.40;;;6.30;;
9138;SDS011;4604;48.616;9.548;2023-10-19T06:59:58;23.73;;;5.60;;
9138;SDS011;4604;48.616;9.548;2023-10-19T07:02:32;18.80;;;6.73;;
9138;SDS011;4604;48.616;9.548;2023-10-19T07:04:59;10.03;;;6.00;;
9138;SDS011;4604;48.616;9.548;2023-10-19T07:07:25;15.00;;;7.77;;
9138;SDS011;4604;48.616;9.548;2023-10-19T07:09:52;12.07;;;6.77;;
9138;SDS011;4604;48.616;9.548;2023-10-19T07:12:18;15.87;;;9.90;;
9138;SDS011;4604;48.616;9.548;2023-10-19T07:14:45;18.67;;;11.07;;
9138;SDS011;4604;48.616;9.548;2023-10-19T07:17:13;16.67;;;10.67;;
9138;SDS011;4604;48.616;9.548;2023-10-19T07:19:41;17.83;;;11.30;;
9138;SDS011;4604;48.616;9.548;2023-10-19T07:22:08;15.40;;;10.60;;
9138;SDS011;4604;48.616;9.548;2023-10-19T07:24:35;15.17;;;9.17;;
9138;SDS011;4604;48.616;9.548;2023-10-19T07:27:03;11.53;;;7.93;;
9138;SDS011;4604;48.616;9.548;2023-10-19T07:29:33;10.27;;;7.87;;
9138;SDS011;4604;48.616;9.548;2023-10-19T07:32:01;11.03;;;7.53;;
9138;SDS011;4604;48.616;9.548;2023-10-19T07:34:32;14.87;;;8.63;;
9138;SDS011;4604;48.616;9.548;2023-10-19T07:36:59;12.10;;;8.27;;
9138;SDS011;4604;48.616;9.548;2023-10-19T07:39:26;12.63;;;8.17;;
9138;SDS011;4604;48.616;9.548;2023-10-19T07:41:55;10.07;;;6.63;;
9138;SDS011;4604;48.616;9.548;2023-10-19T07:44:21;8.10;;;4.60;;
9138;SDS011;4604;48.616;9.548;2023-10-19T07:46:48;6.97;;;3.63;;
9138;SDS011;4604;48.616;9.548;2023-10-19T07:49:15;3.23;;;2.93;;
9138;SDS011;4604;48.616;9.548;2023-10-19T07:51:46;3.40;;;2.70;;
9138;SDS011;4604;48.616;9.548;2023-10-19T07:54:13;4.00;;;2.70;;
9138;SDS011;4604;48.616;9.548;2023-10-19T07:56:41;2.73;;;2.37;;
9138;SDS011;4604;48.616;9.548;2023-10-19T07:59:08;3.80;;;2.60;;
9138;SDS011;4604;48.616;9.548;2023-10-19T08:01:37;6.93;;;2.63;;
9138;SDS011;4604;48.616;9.548;2023-10-19T08:04:03;2.57;;;1.97;;
9138;SDS011;4604;48.616;9.548;2023-10-19T08:06:30;2.60;;;2.08;;
9138;SDS011;4604;48.616;9.548;2023-10-19T08:08:58;3.33;;;1.80;;
9138;SDS011;4604;48.616;9.548;2023-10-19T08:11:25;2.97;;;1.80;;
9138;SDS011;4604;48.616;9.548;2023-10-19T08:13:52;2.20;;;1.90;;
9138;SDS011;4604;48.616;9.548;2023-10-19T08:16:20;2.75;;;2.00;;
9138;SDS011;4604;48.616;9.548;2023-10-19T08:18:47;2.67;;;2.00;;
9138;SDS011;4604;48.616;9.548;2023-10-19T08:21:14;2.28;;;2.03;;
9138;SDS011;4604;48.616;9.548;2023-10-19T08:23:40;2.08;;;1.85;;
9138;SDS011;4604;48.616;9.548;2023-10-19T08:26:08;2.58;;;1.83;;
9138;SDS011;4604;48.616;9.548;2023-10-19T08:28:35;2.40;;;1.58;;
9138;SDS011;4604;48.616;9.548;2023-10-19T08:31:02;2.25;;;1.58;;
9138;SDS011;4604;48.616;9.548;2023-10-19T08:33:30;2.25;;;1.25;;
9138;SDS011;4604;48.616;9.548;2023-10-19T08:35:58;1.45;;;1.33;;
9138;SDS011;4604;48.616;9.548;2023-10-19T08:38:26;2.47;;;1.23;;
9138;SDS011;4604;48.616;9.548;2023-10-19T08:40:53;1.73;;;1.30;;
9138;SDS011;4604;48.616;9.548;2023-10-19T08:43:21;1.92;;;1.30;;
9138;SDS011;4604;48.616;9.548;2023-10-19T08:45:49;1.63;;;1.30;;
9138;SDS011;4604;48.616;9.548;2023-10-19T08:48:16;3.55;;;1.50;;
9138;SDS011;4604;48.616;9.548;2023-10-19T08:50:43;1.40;;;1.30;;
9138;SDS011;4604;48.616;9.548;2023-10-19T08:53:11;1.67;;;1.17;;
9138;SDS011;4604;48.616;9.548;2023-10-19T08:55:39;1.77;;;1.40;;
9138;SDS011;4604;48.616;9.548;2023-10-19T08:58:06;1.02;;;1.00;;
9138;SDS011;4604;48.616;9.548;2023-10-19T09:00:44;1.35;;;1.17;;
9138;SDS011;4604;48.616;9.548;2023-10-19T09:03:13;1.42;;;1.33;;
9138;SDS011;4604;48.616;9.548;2023-10-19T09:05:41;2.20;;;1.98;;
9138;SDS011;4604;48.616;9.548;2023-10-19T09:08:09;11.25;;;7.45;;
9138;SDS011;4604;48.616;9.548;2023-10-19T09:10:42;13.07;;;8.05;;
9138;SDS011;4604;48.616;9.548;2023-10-19T09:13:10;16.10;;;8.80;;
9138;SDS011;4604;48.616;9.548;2023-10-19T09:15:37;10.65;;;8.50;;
9138;SDS011;4604;48.616;9.548;2023-10-19T09:18:16;10.25;;;8.02;;
9138;SDS011;4604;48.616;9.548;2023-10-19T09:20:44;10.82;;;7.68;;
9138;SDS011;4604;48.616;9.548;2023-10-19T09:23:22;11.80;;;9.23;;
9138;SDS011;4604;48.616;9.548;2023-10-19T09:25:52;14.80;;;8.85;;
9138;SDS011;4604;48.616;9.548;2023-10-19T09:28:19;9.38;;;8.15;;
9138;SDS011;4604;48.616;9.548;2023-10-19T09:30:46;13.20;;;8.80;;
9138;SDS011;4604;48.616;9.548;2023-10-19T09:33:16;11.52;;;8.48;;
9138;SDS011;4604;48.616;9.548;2023-10-19T09:35:44;12.15;;;8.23;;
9138;SDS011;4604;48.616;9.548;2023-10-19T09:38:13;10.38;;;7.90;;
9138;SDS011;4604;48.616;9.548;2023-10-19T09:40:41;10.93;;;7.80;;
9138;SDS011;4604;48.616;9.548;2023-10-19T09:43:11;9.85;;;6.68;;
9138;SDS011;4604;48.616;9.548;2023-10-19T09:45:42;11.13;;;8.02;;
9138;SDS011;4604;48.616;9.548;2023-10-19T09:48:17;9.52;;;7.18;;
9138;SDS011;4604;48.616;9.548;2023-10-19T09:50:46;14.90;;;8.50;;
9138;SDS011;4604;48.616;9.548;2023-10-19T09:53:20;12.13;;;7.43;;
9138;SDS011;4604;48.616;9.548;2023-10-19T09:55:48;10.02;;;8.43;;
9138;SDS011;4604;48.616;9.548;2023-10-19T09:58:19;10.98;;;8.55;;
9138;SDS011;4604;48.616;9.548;2023-10-19T10:00:49;17.92;;;9.32;;
9138;SDS011;4604;48.616;9.548;2023-10-19T10:06:09;11.10;;;8.43;;
9138;SDS011;4604;48.616;9.548;2023-10-19T10:08:37;12.70;;;8.98;;
9138;SDS011;4604;48.616;9.548;2023-10-19T10:11:15;11.02;;;7.60;;
9138;SDS011;4604;48.616;9.548;2023-10-19T10:13:46;14.45;;;9.38;;
9138;SDS011;4604;48.616;9.548;2023-10-19T10:16:15;13.43;;;9.50;;
9138;SDS011;4604;48.616;9.548;2023-10-19T10:18:44;11.23;;;8.27;;
9138;SDS011;4604;48.616;9.548;2023-10-19T10:21:13;11.65;;;8.77;;
9138;SDS011;4604;48.616;9.548;2023-10-19T10:23:42;10.57;;;7.50;;
9138;SDS011;4604;48.616;9.548;2023-10-19T10:26:09;9.55;;;7.43;;
9138;SDS011;4604;48.616;9.548;2023-10-19T10:28:37;8.95;;;7.53;;
9138;SDS011;4604;48.616;9.548;2023-10-19T10:31:14;13.98;;;9.73;;
9138;SDS011;4604;48.616;9.548;2023-10-19T10:33:47;12.32;;;8.95;;
9138;SDS011;4604;48.616;9.548;2023-10-19T10:36:16;11.65;;;8.05;;
9138;SDS011;4604;48.616;9.548;2023-10-19T10:38:44;10.93;;;8.20;;
9138;SDS011;4604;48.616;9.548;2023-10-19T10:41:11;15.82;;;9.43;;
9138;SDS011;4604;48.616;9.548;2023-10-19T10:43:51;10.52;;;8.25;;
9138;SDS011;4604;48.616;9.548;2023-10-19T10:46:19;4.28;;;3.63;;
9138;SDS011;4604;48.616;9.548;2023-10-19T10:48:47;4.93;;;4.40;;
9138;SDS011;4604;48.616;9.548;2023-10-19T10:51:15;3.50;;;3.10;;
9138;SDS011;4604;48.616;9.548;2023-10-19T10:53:42;4.97;;;3.55;;
9138;SDS011;4604;48.616;9.548;2023-10-19T10:56:09;4.53;;;2.50;;
9138;SDS011;4604;48.616;9.548;2023-10-19T10:58:37;10.68;;;8.18;;
9138;SDS011;4604;48.616;9.548;2023-10-19T11:01:03;11.70;;;8.68;;
9138;SDS011;4604;48.616;9.548;2023-10-19T11:03:30;13.40;;;7.35;;
9138;SDS011;4604;48.616;9.548;2023-10-19T11:06:03;10.05;;;7.85;;
9138;SDS011;4604;48.616;9.548;2023-10-19T11:08:33;10.35;;;8.82;;
9138;SDS011;4604;48.616;9.548;2023-10-19T11:11:02;10.75;;;8.50;;
9138;SDS011;4604;48.616;9.548;2023-10-19T11:13:30;11.70;;;9.02;;
9138;SDS011;4604;48.616;9.548;2023-10-19T11:16:00;11.95;;;9.02;;
9138;SDS011;4604;48.616;9.548;2023-10-19T11:18:31;13.73;;;9.07;;
9138;SDS011;4604;48.616;9.548;2023-10-19T11:21:00;13.05;;;9.07;;
9138;SDS011;4604;48.616;9.548;2023-10-19T11:23:38;11.30;;;9.02;;
9138;SDS011;4604;48.616;9.548;2023-10-19T11:26:07;12.82;;;9.43;;
9138;SDS011;4604;48.616;9.548;2023-10-19T11:28:34;12.98;;;9.60;;
9138;SDS011;4604;48.616;9.548;2023-10-19T11:31:10;12.27;;;9.13;;
9138;SDS011;4604;48.616;9.548;2023-10-19T11:33:41;12.75;;;9.50;;
9138;SDS011;4604;48.616;9.548;2023-10-19T11:36:09;13.38;;;9.45;;
9138;SDS011;4604;48.616;9.548;2023-10-19T11:38:38;15.75;;;9.15;;
9138;SDS011;4604;48.616;9.548;2023-10-19T11:41:06;11.52;;;8.98;;
9138;SDS011;4604;48.616;9.548;2023-10-19T11:43:32;13.75;;;9.73;;
9138;SDS011;4604;48.616;9.548;2023-10-19T11:45:59;15.82;;;10.20;;
9138;SDS011;4604;48.616;9.548;2023-10-19T11:48:26;16.20;;;11.68;;
9138;SDS011;4604;48.616;9.548;2023-10-19T11:50:52;11.77;;;9.95;;
9138;SDS011;4604;48.616;9.548;2023-10-19T11:53:19;15.30;;;11.25;;
9138;SDS011;4604;48.616;9.548;2023-10-19T11:55:47;20.75;;;11.48;;
9138;SDS011;4604;48.616;9.548;2023-10-19T11:58:14;11.45;;;9.25;;
9138;SDS011;4604;48.616;9.548;2023-10-19T12:00:40;16.25;;;11.20;;
9138;SDS011;4604;48.616;9.548;2023-10-19T12:03:08;11.65;;;8.70;;
9138;SDS011;4604;48.616;9.548;2023-10-19T12:05:35;16.88;;;9.82;;
9138;SDS011;4604;48.616;9.548;2023-10-19T12:08:03;10.60;;;8.13;;
9138;SDS011;4604;48.616;9.548;2023-10-19T12:10:31;12.07;;;8.57;;
9138;SDS011;4604;48.616;9.548;2023-10-19T12:13:01;11.50;;;8.10;;
9138;SDS011;4604;48.616;9.548;2023-10-19T12:15:29;11.93;;;9.68;;
9138;SDS011;4604;48.616;9.548;2023-10-19T12:17:57;12.05;;;9.00;;
9138;SDS011;4604;48.616;9.548;2023-10-19T12:20:24;11.57;;;9.05;;
9138;SDS011;4604;48.616;9.548;2023-10-19T12:22:51;13.27;;;9.13;;
9138;SDS011;4604;48.616;9.548;2023-10-19T12:25:19;11.05;;;8.35;;
9138;SDS011;4604;48.616;9.548;2023-10-19T12:27:45;8.88;;;7.28;;
9138;SDS011;4604;48.616;9.548;2023-10-19T12:30:13;9.70;;;7.18;;
9138;SDS011;4604;48.616;9.548;2023-10-19T12:32:45;9.40;;;6.15;;
9138;SDS011;4604;48.616;9.548;2023-10-19T12:35:14;9.25;;;6.10;;
9138;SDS011;4604;48.616;9.548;2023-10-19T12:37:44;7.25;;;5.28;;
9138;SDS011;4604;48.616;9.548;2023-10-19T12:40:16;7.22;;;6.07;;
9138;SDS011;4604;48.616;9.548;2023-10-19T12:42:52;6.15;;;5.13;;
9138;SDS011;4604;48.616;9.548;2023-10-19T12:45:21;6.68;;;5.10;;
9138;SDS011;4604;48.616;9.548;2023-10-19T12:47:48;6.82;;;5.25;;
9138;SDS011;4604;48.616;9.548;2023-10-19T12:50:15;6.75;;;4.90;;
9138;SDS011;4604;48.616;9.548;2023-10-19T12:52:41;6.35;;;4.35;;
9138;SDS011;4604;48.616;9.548;2023-10-19T12:55:08;5.55;;;4.60;;
9138;SDS011;4604;48.616;9.548;2023-10-19T12:57:36;5.75;;;4.68;;
9138;SDS011;4604;48.616;9.548;2023-10-19T13:00:03;5.85;;;5.13;;
9138;SDS011;4604;48.616;9.548;2023-10-19T13:02:50;7.10;;;5.20;;
9138;SDS011;4604;48.616;9.548;2023-10-19T13:05:17;6.25;;;4.90;;
9138;SDS011;4604;48.616;9.548;2023-10-19T13:07:45;5.47;;;4.43;;
9138;SDS011;4604;48.616;9.548;2023-10-19T13:10:12;5.47;;;4.40;;
9138;SDS011;4604;48.616;9.548;2023-10-19T13:12:39;5.10;;;4.00;;
9138;SDS011;4604;48.616;9.548;2023-10-19T13:15:07;7.55;;;4.63;;
9138;SDS011;4604;48.616;9.548;2023-10-19T13:17:38;5.97;;;4.25;;
9138;SDS011;4604;48.616;9.548;2023-10-19T13:20:08;5.53;;;4.90;;
9138;SDS011;4604;48.616;9.548;2023-10-19T13:22:43;8.82;;;4.82;;
9138;SDS011;4604;48.616;9.548;2023-10-19T13:25:10;9.07;;;5.15;;
9138;SDS011;4604;48.616;9.548;2023-10-19T13:27:38;5.90;;;4.50;;
9138;SDS011;4604;48.616;9.548;2023-10-19T13:30:07;4.50;;;3.72;;
9138;SDS011;4604;48.616;9.548;2023-10-19T13:32:35;5.28;;;3.60;;
9138;SDS011;4604;48.616;9.548;2023-10-19T13:35:02;4.20;;;3.15;;
9138;SDS011;4604;48.616;9.548;2023-10-19T13:37:30;3.35;;;2.65;;
9138;SDS011;4604;48.616;9.548;2023-10-19T13:39:57;3.75;;;2.22;;
9138;SDS011;4604;48.616;9.548;2023-10-19T13:42:24;2.70;;;1.90;;
9138;SDS011;4604;48.616;9.548;2023-10-19T13:44:51;2.15;;;1.95;;
9138;SDS011;4604;48.616;9.548;2023-10-19T13:47:18;2.00;;;1.90;;
9138;SDS011;4604;48.616;9.548;2023-10-19T13:49:44;2.08;;;1.77;;
9138;SDS011;4604;48.616;9.548;2023-10-19T13:52:12;2.70;;;1.52;;
9138;SDS011;4604;48.616;9.548;2023-10-19T13:54:41;2.72;;;1.90;;
9138;SDS011;4604;48.616;9.548;2023-10-19T13:57:08;2.50;;;1.40;;
9138;SDS011;4604;48.616;9.548;2023-10-19T13:59:35;1.90;;;1.70;;
9138;SDS011;4604;48.616;9.548;2023-10-19T14:02:02;3.08;;;1.60;;
9138;SDS011;4604;48.616;9.548;2023-10-19T14:04:28;1.55;;;1.15;;
9138;SDS011;4604;48.616;9.548;2023-10-19T14:06:56;0.93;;;0.90;;
9138;SDS011;4604;48.616;9.548;2023-10-19T14:09:22;1.38;;;0.98;;
9138;SDS011;4604;48.616;9.548;2023-10-19T14:11:52;0.90;;;0.90;;
9138;SDS011;4604;48.616;9.548;2023-10-19T14:14:19;0.75;;;0.75;;
9138;SDS011;4604;48.616;9.548;2023-10-19T14:16:46;1.15;;;0.90;;
9138;SDS011;4604;48.616;9.548;2023-10-19T14:19:15;1.67;;;0.80;;
9138;SDS011;4604;48.616;9.548;2023-10-19T14:21:42;0.60;;;0.60;;
9138;SDS011;4604;48.616;9.548;2023-10-19T14:24:11;1.75;;;0.70;;
9138;SDS011;4604;48.616;9.548;2023-10-19T14:26:37;2.63;;;1.80;;
9138;SDS011;4604;48.616;9.548;2023-10-19T14:29:09;2.05;;;1.77;;
9138;SDS011;4604;48.616;9.548;2023-10-19T14:31:37;1.15;;;1.05;;
9138;SDS011;4604;48.616;9.548;2023-10-19T14:34:03;1.30;;;1.20;;
9138;SDS011;4604;48.616;9.548;2023-10-19T14:36:30;0.95;;;0.88;;
9138;SDS011;4604;48.616;9.548;2023-10-19T14:38:56;1.40;;;1.10;;
9138;SDS011;4604;48.616;9.548;2023-10-19T14:41:23;0.85;;;0.85;;
9138;SDS011;4604;48.616;9.548;2023-10-19T14:43:50;0.93;;;0.90;;
9138;SDS011;4604;48.616;9.548;2023-10-19T14:46:18;1.50;;;1.33;;
9138;SDS011;4604;48.616;9.548;2023-10-19T14:48:44;1.02;;;0.75;;
9138;SDS011;4604;48.616;9.548;2023-10-19T14:51:11;0.93;;;0.82;;
9138;SDS011;4604;48.616;9.548;2023-10-19T14:53:38;0.90;;;0.90;;
9138;SDS011;4604;48.616;9.548;2023-10-19T14:56:05;1.13;;;0.88;;
9138;SDS011;4604;48.616;9.548;2023-10-19T14:58:32;1.65;;;0.95;;
9138;SDS011;4604;48.616;9.548;2023-10-19T15:00:59;4.32;;;1.15;;
9138;SDS011;4604;48.616;9.548;2023-10-19T15:03:27;1.08;;;1.00;;
9138;SDS011;4604;48.616;9.548;2023-10-19T15:05:54;1.20;;;1.10;;
9138;SDS011;4604;48.616;9.548;2023-10-19T15:08:21;1.52;;;1.00;;
9138;SDS011;4604;48.616;9.548;2023-10-19T15:10:49;2.38;;;1.00;;
9138;SDS011;4604;48.616;9.548;2023-10-19T15:13:16;1.55;;;1.23;;
9138;SDS011;4604;48.616;9.548;2023-10-19T15:15:42;1.33;;;1.15;;
9138;SDS011;4604;48.616;9.548;2023-10-19T15:18:09;1.85;;;1.40;;
9138;SDS011;4604;48.616;9.548;2023-10-19T15:20:37;1.80;;;1.60;;
9138;SDS011;4604;48.616;9.548;2023-10-19T15:23:03;1.95;;;1.35;;